createdAt,value
2017-03-25T07:43:41.271Z,16916
2017-03-25T07:44:21.846Z,23936
2017-03-25T07:45:02.419Z,35968
2017-03-25T07:45:42.999Z,47392
2017-03-25T07:46:23.580Z,21856
2017-03-25T07:47:04.142Z,26272
2017-03-25T07:47:44.726Z,20192
2017-03-25T07:48:25.417Z,25248
2017-03-25T07:49:06.083Z,26624
2017-03-25T07:49:46.754Z,49472
2017-03-25T07:50:27.332Z,55040
2017-03-25T07:51:07.913Z,22560
2017-03-25T07:51:48.493Z,42816
2017-03-25T07:52:29.080Z,47008
2017-03-25T07:53:09.658Z,50240
2017-03-25T07:53:50.233Z,48960
2017-03-25T07:54:31.771Z,50528
2017-03-25T07:55:12.046Z,26912
2017-03-25T07:55:52.758Z,17468
2017-03-25T07:56:33.331Z,21632
2017-03-25T07:57:13.911Z,36640
2017-03-25T07:57:54.506Z,25440
2017-03-25T07:58:35.080Z,49248
2017-03-25T07:59:15.698Z,53408
2017-03-25T07:59:56.282Z,54880
2017-03-25T08:00:36.854Z,23840
2017-03-25T08:01:17.776Z,50464
2017-03-25T08:01:58.355Z,22688
2017-03-25T08:02:38.939Z,35104
2017-03-25T08:03:19.520Z,48000
2017-03-25T08:04:00.106Z,52384
2017-03-25T08:04:40.685Z,29760
2017-03-25T08:05:21.257Z,52512
2017-03-25T08:06:01.850Z,48576
2017-03-25T08:06:42.438Z,49280
2017-03-25T08:07:23.015Z,37056
2017-03-25T08:08:03.600Z,52928
2017-03-25T08:08:44.174Z,52128
2017-03-25T08:09:24.739Z,57344
2017-03-25T08:10:05.323Z,55328
2017-03-25T08:10:45.906Z,54304
2017-03-25T08:11:26.472Z,58496
2017-03-25T08:12:07.063Z,60736
2017-03-25T08:12:47.630Z,64640
2017-03-25T08:13:28.212Z,62432
2017-03-25T08:14:08.796Z,60544
2017-03-25T08:14:49.375Z,57888
2017-03-25T08:15:29.950Z,60288
2017-03-25T08:16:10.530Z,60640
2017-03-25T08:16:51.114Z,56928
2017-03-25T08:17:31.687Z,60480
2017-03-25T08:18:12.271Z,61760
2017-03-25T08:18:52.855Z,61984
2017-03-25T08:19:33.437Z,63168
2017-03-25T08:20:14.009Z,60224
2017-03-25T08:20:54.600Z,61600
2017-03-25T08:21:35.176Z,63456
2017-03-25T08:22:15.737Z,64384
2017-03-25T08:22:56.320Z,60544
2017-03-25T08:23:36.911Z,62368
2017-03-25T08:24:17.496Z,60800
2017-03-25T08:24:58.073Z,61824
2017-03-25T08:25:38.654Z,61152
2017-03-25T08:26:19.235Z,58656
2017-03-25T08:26:59.811Z,60672
2017-03-25T08:27:40.398Z,59200
2017-03-25T08:28:20.965Z,60800
2017-03-25T08:29:01.548Z,30272
2017-03-25T08:29:42.132Z,34816
2017-03-25T08:30:22.704Z,54656
2017-03-25T08:31:03.276Z,59488
2017-03-25T08:31:43.860Z,57312
2017-03-25T08:32:24.444Z,58176
2017-03-25T08:33:05.013Z,60352
2017-03-25T08:33:45.591Z,60000
2017-03-25T08:34:26.178Z,61952
2017-03-25T08:35:06.763Z,60736
2017-03-25T08:35:47.348Z,60608
2017-03-25T08:36:27.930Z,55840
2017-03-25T08:37:08.501Z,56512
2017-03-25T08:37:49.079Z,57984
2017-03-25T08:38:29.661Z,57792
2017-03-25T08:39:10.239Z,59808
2017-03-25T08:39:50.819Z,59552
2017-03-25T08:40:31.398Z,60256
2017-03-25T08:41:11.972Z,55328
2017-03-25T08:41:52.558Z,43264
2017-03-25T08:42:33.133Z,34432
2017-03-25T08:43:13.713Z,28096
2017-03-25T08:43:54.294Z,19616
2017-03-25T08:44:34.874Z,15412
2017-03-25T08:45:15.457Z,15800
2017-03-25T08:45:56.030Z,16404
2017-03-25T08:46:36.617Z,16476
2017-03-25T08:47:17.194Z,16508
2017-03-25T08:47:57.770Z,16572
2017-03-25T08:48:38.349Z,15920
2017-03-25T08:49:18.942Z,15708
2017-03-25T08:49:59.622Z,16108
2017-03-25T08:50:40.618Z,15556
2017-03-25T08:51:21.206Z,14896
2017-03-25T08:52:01.780Z,13992
2017-03-25T08:52:42.367Z,13484
2017-03-25T08:53:22.939Z,12940
2017-03-25T08:54:03.521Z,12860
2017-03-25T08:54:44.111Z,12632
2017-03-25T08:55:24.696Z,12720
2017-03-25T08:56:05.270Z,12788
2017-03-25T08:56:45.847Z,12656
2017-03-25T08:57:26.427Z,12504
2017-03-25T08:58:07.009Z,12188
2017-03-25T08:58:47.571Z,12092
2017-03-25T08:59:28.150Z,12304
2017-03-25T09:00:08.736Z,12280
2017-03-25T09:00:49.312Z,11868
2017-03-25T09:01:29.877Z,11448
2017-03-25T09:02:10.449Z,11424
2017-03-25T09:02:51.028Z,11284
2017-03-25T09:03:31.634Z,11100
2017-03-25T09:04:12.223Z,10988
2017-03-25T09:04:52.801Z,11044
2017-03-25T09:05:33.393Z,11100
2017-03-25T09:06:13.959Z,11240
2017-03-25T09:06:54.552Z,11504
2017-03-25T09:07:35.130Z,11492
2017-03-25T09:08:15.707Z,11548
2017-03-25T09:08:56.339Z,11324
2017-03-25T09:09:36.965Z,11300
2017-03-25T09:10:17.549Z,11352
2017-03-25T09:10:58.123Z,11332
2017-03-25T09:11:38.720Z,10516
2017-03-25T09:12:19.301Z,10504
2017-03-25T09:12:59.864Z,10568
2017-03-25T09:13:40.463Z,10424
2017-03-25T09:14:21.041Z,10404
2017-03-25T09:15:01.628Z,10288
2017-03-25T09:15:42.315Z,10104
2017-03-25T09:16:22.886Z,10080
2017-03-25T09:17:03.630Z,9912
2017-03-25T09:17:44.412Z,9996
2017-03-25T09:18:25.003Z,10028
2017-03-25T09:19:05.593Z,9992
2017-03-25T09:19:46.171Z,9912
2017-03-25T09:20:26.762Z,10056
2017-03-25T09:21:07.342Z,10124
2017-03-25T09:21:47.919Z,9928
2017-03-25T09:22:28.502Z,9812
2017-03-25T09:23:09.250Z,9904
2017-03-25T09:23:49.835Z,9680
2017-03-25T09:24:30.409Z,9628
2017-03-25T09:25:11.001Z,9488
2017-03-25T09:25:51.558Z,9436
2017-03-25T09:26:32.138Z,9316
2017-03-25T09:27:12.714Z,9372
2017-03-25T09:27:53.429Z,9504
2017-03-25T09:28:34.012Z,9420
2017-03-25T09:29:14.820Z,9328
2017-03-25T09:29:55.810Z,9236
2017-03-25T09:30:36.398Z,9104
2017-03-25T09:31:16.981Z,9084
2017-03-25T09:31:57.769Z,9100
2017-03-25T09:32:38.548Z,9028
2017-03-25T09:33:19.247Z,8916
2017-03-25T09:33:59.903Z,8888
2017-03-25T09:34:40.473Z,8776
2017-03-25T09:35:21.049Z,8788
2017-03-25T09:36:01.639Z,8852
2017-03-25T09:36:42.207Z,8800
2017-03-25T09:37:22.781Z,8740
2017-03-25T09:38:03.434Z,8732
2017-03-25T09:38:44.133Z,8588
2017-03-25T09:39:24.720Z,8360
2017-03-25T09:40:05.302Z,8188
2017-03-25T09:40:45.920Z,8124
2017-03-25T09:41:26.509Z,8224
2017-03-25T09:42:07.091Z,8268
2017-03-25T09:42:47.669Z,8256
2017-03-25T09:43:28.243Z,8132
2017-03-25T09:44:08.835Z,8208
2017-03-25T09:44:49.446Z,8260
2017-03-25T09:45:30.056Z,8024
2017-03-25T09:46:10.934Z,7984
2017-03-25T09:46:51.515Z,7896
2017-03-25T09:47:32.087Z,7788
2017-03-25T09:48:12.678Z,7668
2017-03-25T09:48:53.257Z,7600
2017-03-25T09:49:33.840Z,7496
2017-03-25T09:50:14.429Z,7352
2017-03-25T09:50:55.007Z,7272
2017-03-25T09:51:35.600Z,7236
2017-03-25T09:52:16.171Z,7184
2017-03-25T09:52:56.752Z,7188
2017-03-25T09:53:37.507Z,7076
2017-03-25T09:54:18.308Z,6960
2017-03-25T09:54:58.914Z,6980
2017-03-25T09:55:39.710Z,7020
2017-03-25T09:56:20.781Z,7028
2017-03-25T09:57:01.889Z,6936
2017-03-25T09:57:42.753Z,6944
2017-03-25T09:58:23.776Z,6852
2017-03-25T09:59:04.731Z,6696
2017-03-25T09:59:45.436Z,6656
2017-03-25T10:00:26.016Z,6600
2017-03-25T10:01:06.606Z,6692
2017-03-25T10:01:47.610Z,6688
2017-03-25T10:02:28.181Z,6608
2017-03-25T10:03:08.759Z,6520
2017-03-25T10:03:49.325Z,6392
2017-03-25T10:04:29.903Z,6360
2017-03-25T10:05:10.489Z,6416
2017-03-25T10:05:51.050Z,6392
2017-03-25T10:06:31.630Z,6304
2017-03-25T10:07:12.874Z,6252
2017-03-25T10:07:53.633Z,6220
2017-03-25T10:08:34.356Z,6188
2017-03-25T10:09:15.386Z,6152
2017-03-25T10:09:56.424Z,6140
2017-03-25T10:10:37.184Z,6120
2017-03-25T10:11:18.106Z,6120
2017-03-25T10:11:58.760Z,6144
2017-03-25T10:12:39.420Z,6160
2017-03-25T10:13:20.334Z,6076
2017-03-25T10:14:00.901Z,6060
2017-03-25T10:14:41.674Z,5992
2017-03-25T10:15:22.270Z,5976
2017-03-25T10:16:03.000Z,5908
2017-03-25T10:16:43.788Z,5916
2017-03-25T10:17:24.560Z,5884
2017-03-25T10:18:05.400Z,5968
2017-03-25T10:18:45.974Z,5924
2017-03-25T10:19:26.551Z,5876
2017-03-25T10:20:07.132Z,5884
2017-03-25T10:20:48.198Z,5892
2017-03-25T10:21:29.009Z,5860
2017-03-25T10:22:09.591Z,5816
2017-03-25T10:22:50.173Z,5848
2017-03-25T10:23:30.752Z,5792
2017-03-25T10:24:11.340Z,5736
2017-03-25T10:24:51.924Z,5664
2017-03-25T10:25:32.500Z,5584
2017-03-25T10:26:13.262Z,5548
2017-03-25T10:26:53.856Z,5544
2017-03-25T10:27:34.598Z,5548
2017-03-25T10:28:15.167Z,5536
2017-03-25T10:28:55.740Z,5604
2017-03-25T10:29:36.320Z,5596
2017-03-25T10:30:17.056Z,5532
2017-03-25T10:30:57.640Z,5444
2017-03-25T10:31:38.460Z,5420
2017-03-25T10:32:19.038Z,5408
2017-03-25T10:33:00.594Z,5372
2017-03-25T10:33:41.177Z,5356
2017-03-25T10:34:21.756Z,5336
2017-03-25T10:35:02.334Z,5344
2017-03-25T10:35:42.913Z,5360
2017-03-25T10:36:23.500Z,5372
2017-03-25T10:37:04.107Z,5368
2017-03-25T10:37:44.673Z,5344
2017-03-25T10:38:25.258Z,5332
2017-03-25T10:39:05.846Z,5308
2017-03-25T10:39:46.426Z,5292
2017-03-25T10:40:27.013Z,5232
2017-03-25T10:41:07.590Z,5232
2017-03-25T10:41:48.170Z,5220
2017-03-25T10:42:28.757Z,5228
2017-03-25T10:43:09.352Z,5236
2017-03-25T10:43:49.935Z,5172
2017-03-25T10:44:30.517Z,5116
2017-03-25T10:45:11.093Z,5076
2017-03-25T10:45:51.682Z,5096
2017-03-25T10:46:32.247Z,5104
2017-03-25T10:47:12.832Z,5100
2017-03-25T10:47:53.413Z,5056
2017-03-25T10:48:33.996Z,5072
2017-03-25T10:49:14.563Z,5092
2017-03-25T10:49:55.218Z,5116
2017-03-25T10:50:35.762Z,5084
2017-03-25T10:51:16.345Z,5112
2017-03-25T10:51:56.931Z,5136
2017-03-25T10:52:37.696Z,5152
2017-03-25T10:53:18.284Z,5104
2017-03-25T10:53:58.865Z,5076
2017-03-25T10:54:39.697Z,5076
2017-03-25T10:55:20.273Z,5080
2017-03-25T10:56:01.019Z,5020
2017-03-25T10:56:41.609Z,5040
2017-03-25T10:57:22.181Z,5008
2017-03-25T10:58:02.768Z,5016
2017-03-25T10:58:43.340Z,5008
2017-03-25T10:59:23.913Z,5004
2017-03-25T11:00:04.495Z,4984
2017-03-25T11:00:45.078Z,4972
2017-03-25T11:01:25.664Z,4948
2017-03-25T11:02:06.241Z,4932
2017-03-25T11:02:46.819Z,4920
2017-03-25T11:03:27.403Z,4936
2017-03-25T11:04:07.989Z,4924
2017-03-25T11:04:48.565Z,4916
2017-03-25T11:05:29.147Z,4888
2017-03-25T11:06:09.716Z,4852
2017-03-25T11:06:50.301Z,4828
2017-03-25T11:07:30.873Z,4832
2017-03-25T11:08:11.465Z,4852
2017-03-25T11:08:52.048Z,4844
2017-03-25T11:09:32.618Z,4832
2017-03-25T11:10:13.197Z,4860
2017-03-25T11:10:53.784Z,4892
2017-03-25T11:11:34.371Z,4896
2017-03-25T11:12:14.932Z,4884
2017-03-25T11:12:55.521Z,4840
2017-03-25T11:13:36.108Z,4828
2017-03-25T11:14:16.696Z,4800
2017-03-25T11:14:57.278Z,4812
2017-03-25T11:15:37.865Z,4800
2017-03-25T11:16:18.440Z,4804
2017-03-25T11:16:59.013Z,4780
2017-03-25T11:17:39.600Z,4756
2017-03-25T11:18:20.190Z,4752
2017-03-25T11:19:00.769Z,4744
2017-03-25T11:19:41.355Z,4760
2017-03-25T11:20:21.930Z,4736
2017-03-25T11:21:02.512Z,4720
2017-03-25T11:21:43.074Z,4724
2017-03-25T11:22:23.657Z,4704
2017-03-25T11:23:04.240Z,4668
2017-03-25T11:23:44.830Z,4676
2017-03-25T11:24:25.415Z,4656
2017-03-25T11:25:06.000Z,4636
2017-03-25T11:25:46.647Z,4648
2017-03-25T11:26:27.235Z,4636
2017-03-25T11:27:07.819Z,4644
2017-03-25T11:27:48.416Z,4648
2017-03-25T11:28:29.297Z,4616
2017-03-25T11:29:09.877Z,4628
2017-03-25T11:29:50.459Z,4628
2017-03-25T11:30:31.042Z,4608
2017-03-25T11:31:11.783Z,4608
2017-03-25T11:31:52.904Z,4588
2017-03-25T11:32:34.042Z,4564
2017-03-25T11:33:14.740Z,4572
2017-03-25T11:33:55.659Z,4540
2017-03-25T11:34:36.557Z,4524
2017-03-25T11:35:17.524Z,4540
2017-03-25T11:35:58.998Z,4584
2017-03-25T11:36:40.358Z,4608
2017-03-25T11:37:21.557Z,4608
2017-03-25T11:38:02.145Z,4608
2017-03-25T11:38:42.724Z,4588
2017-03-25T11:39:23.313Z,4588
2017-03-25T11:40:03.891Z,4560
2017-03-25T11:40:44.480Z,4568
2017-03-25T11:41:25.052Z,4560
2017-03-25T11:42:05.634Z,4544
2017-03-25T11:42:46.314Z,4580
2017-03-25T11:43:26.898Z,4592
2017-03-25T11:44:07.484Z,4600
2017-03-25T11:44:48.056Z,4596
2017-03-25T11:45:28.638Z,4624
2017-03-25T11:46:09.220Z,4604
2017-03-25T11:46:49.798Z,4592
2017-03-25T11:47:30.381Z,4576
2017-03-25T11:48:10.986Z,4572
2017-03-25T11:48:51.567Z,4576
2017-03-25T11:49:32.140Z,4564
2017-03-25T11:50:12.728Z,4576
2017-03-25T11:50:53.306Z,4584
2017-03-25T11:51:33.881Z,4600
2017-03-25T11:52:14.467Z,4592
2017-03-25T11:52:55.050Z,4592
2017-03-25T11:53:35.639Z,4592
2017-03-25T11:54:16.227Z,4604
2017-03-25T11:54:56.808Z,4592
2017-03-25T11:55:37.394Z,4600
2017-03-25T11:56:17.985Z,4576
2017-03-25T11:56:58.789Z,4588
2017-03-25T11:57:39.352Z,4580
2017-03-25T11:58:19.938Z,4572
2017-03-25T11:59:00.525Z,4564
2017-03-25T11:59:41.109Z,4560
2017-03-25T12:00:21.713Z,4572
2017-03-25T12:01:02.286Z,4596
2017-03-25T12:01:42.868Z,4616
2017-03-25T12:02:23.445Z,4624
2017-03-25T12:03:04.027Z,4612
2017-03-25T12:03:44.607Z,4612
2017-03-25T12:04:25.191Z,4604
2017-03-25T12:05:05.774Z,4608
2017-03-25T12:05:46.356Z,4596
2017-03-25T12:06:26.930Z,4596
2017-03-25T12:07:07.532Z,4596
2017-03-25T12:07:48.105Z,4608
2017-03-25T12:08:28.694Z,4612
2017-03-25T12:09:09.266Z,4628
2017-03-25T12:09:49.854Z,4616
2017-03-25T12:10:30.435Z,4656
2017-03-25T12:11:11.022Z,4656
2017-03-25T12:11:51.597Z,4680
2017-03-25T12:12:32.187Z,4680
2017-03-25T12:13:12.771Z,4676
2017-03-25T12:13:53.356Z,4684
2017-03-25T12:14:33.934Z,4700
2017-03-25T12:15:14.510Z,4712
2017-03-25T12:15:55.095Z,4728
2017-03-25T12:16:35.667Z,4736
2017-03-25T12:17:16.255Z,4744
2017-03-25T12:17:56.833Z,4732
2017-03-25T12:18:37.422Z,4756
2017-03-25T12:19:18.035Z,4752
2017-03-25T12:19:58.655Z,4772
2017-03-25T12:20:39.205Z,4768
2017-03-25T12:21:19.781Z,4768
2017-03-25T12:22:00.359Z,4764
2017-03-25T12:22:40.936Z,4720
2017-03-25T12:23:21.522Z,4728
2017-03-25T12:24:02.108Z,4712
2017-03-25T12:24:42.685Z,4720
2017-03-25T12:25:23.272Z,4720
2017-03-25T12:26:03.856Z,4728
2017-03-25T12:26:44.433Z,4760
2017-03-25T12:27:25.011Z,4748
2017-03-25T12:28:05.597Z,4756
2017-03-25T12:28:46.181Z,4720
2017-03-25T12:29:26.758Z,4736
2017-03-25T12:30:07.338Z,4748
2017-03-25T12:30:47.933Z,4732
2017-03-25T12:31:28.514Z,4732
2017-03-25T12:32:09.102Z,4736
2017-03-25T12:32:49.686Z,4760
2017-03-25T12:33:30.273Z,4784
2017-03-25T12:34:10.873Z,4776
2017-03-25T12:34:51.450Z,4768
2017-03-25T12:35:32.033Z,4776
2017-03-25T12:36:12.623Z,4800
2017-03-25T12:36:53.201Z,4808
2017-03-25T12:37:33.782Z,4812
2017-03-25T12:38:14.483Z,4804
2017-03-25T12:38:55.061Z,4816
2017-03-25T12:39:35.640Z,4804
2017-03-25T12:40:16.212Z,4820
2017-03-25T12:40:56.802Z,4820
2017-03-25T12:41:37.389Z,4816
2017-03-25T12:42:17.970Z,4832
2017-03-25T12:42:58.557Z,4840
2017-03-25T12:43:39.137Z,4840
2017-03-25T12:44:19.719Z,4860
2017-03-25T12:45:00.286Z,4852
2017-03-25T12:45:40.874Z,4860
2017-03-25T12:46:21.460Z,4860
2017-03-25T12:47:02.040Z,4864
2017-03-25T12:47:42.640Z,4884
2017-03-25T12:48:23.224Z,4900
2017-03-25T12:49:03.808Z,4904
2017-03-25T12:49:44.384Z,4896
2017-03-25T12:50:25.002Z,4900
2017-03-25T12:51:05.548Z,4896
2017-03-25T12:51:46.134Z,4900
2017-03-25T12:52:26.710Z,4924
2017-03-25T12:53:07.295Z,4928
2017-03-25T12:53:47.873Z,4952
2017-03-25T12:54:28.437Z,4972
2017-03-25T12:55:09.007Z,4964
2017-03-25T12:55:49.591Z,4968
2017-03-25T12:56:30.168Z,4964
2017-03-25T12:57:10.745Z,4972
2017-03-25T12:57:51.330Z,4960
2017-03-25T12:58:31.906Z,4980
2017-03-25T12:59:12.777Z,5008
2017-03-25T12:59:53.442Z,5016
2017-03-25T13:00:33.997Z,5008
2017-03-25T13:01:14.584Z,5004
2017-03-25T13:01:55.167Z,5020
2017-03-25T13:02:35.925Z,5040
2017-03-25T13:03:16.505Z,5068
2017-03-25T13:03:57.078Z,5076
2017-03-25T13:04:37.661Z,5096
2017-03-25T13:05:18.405Z,5120
2017-03-25T13:05:58.981Z,5104
2017-03-25T13:06:39.721Z,5120
2017-03-25T13:07:20.298Z,5128
2017-03-25T13:08:00.924Z,5144
2017-03-25T13:08:41.507Z,5152
2017-03-25T13:09:22.097Z,5176
2017-03-25T13:10:02.793Z,5168
2017-03-25T13:10:43.864Z,5176
2017-03-25T13:11:24.696Z,5188
2017-03-25T13:12:05.538Z,5192
2017-03-25T13:12:46.126Z,5208
2017-03-25T13:13:27.009Z,5204
2017-03-25T13:14:08.023Z,5204
2017-03-25T13:14:48.850Z,5188
2017-03-25T13:15:29.444Z,5196
2017-03-25T13:16:10.023Z,5212
2017-03-25T13:16:50.604Z,5216
2017-03-25T13:17:31.405Z,5220
2017-03-25T13:18:11.993Z,5228
2017-03-25T13:18:52.937Z,5240
2017-03-25T13:19:33.935Z,5252
2017-03-25T13:20:14.736Z,5276
2017-03-25T13:20:55.561Z,5288
2017-03-25T13:21:37.014Z,5288
2017-03-25T13:22:17.833Z,5296
2017-03-25T13:22:58.563Z,5288
2017-03-25T13:23:39.140Z,5312
2017-03-25T13:24:20.242Z,5324
2017-03-25T13:25:00.856Z,5328
2017-03-25T13:25:41.721Z,5312
2017-03-25T13:26:22.312Z,5332
2017-03-25T13:27:02.912Z,5340
2017-03-25T13:27:43.503Z,5352
2017-03-25T13:28:24.285Z,5372
2017-03-25T13:29:05.047Z,5356
2017-03-25T13:29:45.881Z,5368
2017-03-25T13:30:26.601Z,5360
2017-03-25T13:31:07.465Z,5356
2017-03-25T13:31:48.016Z,5352
2017-03-25T13:32:28.984Z,5336
2017-03-25T13:33:09.508Z,5344
2017-03-25T13:33:50.087Z,5348
2017-03-25T13:34:30.702Z,5348
2017-03-25T13:35:11.288Z,5336
2017-03-25T13:35:52.166Z,5340
2017-03-25T13:36:32.746Z,5336
2017-03-25T13:37:13.496Z,5328
2017-03-25T13:37:54.302Z,5332
2017-03-25T13:38:35.057Z,5316
2017-03-25T13:39:15.801Z,5308
2017-03-25T13:39:56.365Z,5252
2017-03-25T13:40:37.121Z,5280
2017-03-25T13:41:17.980Z,5256
2017-03-25T13:41:58.785Z,5264
2017-03-25T13:42:39.571Z,5244
2017-03-25T13:43:20.456Z,5284
2017-03-25T13:44:01.043Z,5276
2017-03-25T13:44:41.758Z,5248
2017-03-25T13:45:22.610Z,5280
2017-03-25T13:46:03.544Z,5276
2017-03-25T13:46:44.582Z,5280
2017-03-25T13:47:25.172Z,5280
2017-03-25T13:48:05.758Z,5256
2017-03-25T13:48:46.335Z,5280
2017-03-25T13:49:27.240Z,5320
2017-03-25T13:50:07.815Z,5324
2017-03-25T13:50:48.394Z,5352
2017-03-25T13:51:28.971Z,5376
2017-03-25T13:52:09.575Z,5356
2017-03-25T13:52:50.155Z,5352
2017-03-25T13:53:30.730Z,5360
2017-03-25T13:54:11.303Z,5380
2017-03-25T13:54:51.876Z,5380
2017-03-25T13:55:32.458Z,5364
2017-03-25T13:56:13.051Z,5384
2017-03-25T13:56:53.622Z,5400
2017-03-25T13:57:34.199Z,5412
2017-03-25T13:58:14.778Z,5364
2017-03-25T13:58:55.361Z,5336
2017-03-25T13:59:35.937Z,5296
2017-03-25T14:00:16.512Z,5276
2017-03-25T14:00:57.110Z,5208
2017-03-25T14:01:37.886Z,5236
2017-03-25T14:02:18.483Z,5244
2017-03-25T14:02:59.064Z,5252
2017-03-25T14:03:39.647Z,5232
2017-03-25T14:04:20.230Z,5140
2017-03-25T14:05:01.041Z,5184
2017-03-25T14:05:41.612Z,5240
2017-03-25T14:06:22.193Z,5260
2017-03-25T14:07:02.785Z,5252
2017-03-25T14:07:43.352Z,5228
2017-03-25T14:08:23.945Z,5236
2017-03-25T14:09:04.530Z,5248
2017-03-25T14:09:45.117Z,5256
2017-03-25T14:10:25.699Z,5212
2017-03-25T14:11:06.285Z,5260
2017-03-25T14:11:46.870Z,5312
2017-03-25T14:12:27.452Z,5268
2017-03-25T14:13:08.030Z,5292
2017-03-25T14:13:48.620Z,5256
2017-03-25T14:14:29.212Z,5224
2017-03-25T14:15:09.785Z,5220
2017-03-25T14:15:50.367Z,5224
2017-03-25T14:16:30.964Z,5208
2017-03-25T14:17:11.554Z,5224
2017-03-25T14:17:52.508Z,5260
2017-03-25T14:18:33.527Z,5260
2017-03-25T14:19:14.115Z,5228
2017-03-25T14:19:54.703Z,5228
2017-03-25T14:20:35.287Z,5232
2017-03-25T14:21:15.867Z,5256
2017-03-25T14:21:56.453Z,5280
2017-03-25T14:22:37.020Z,5272
2017-03-25T14:23:17.610Z,5300
2017-03-25T14:23:58.186Z,5280
2017-03-25T14:24:38.775Z,5236
2017-03-25T14:25:19.350Z,5240
2017-03-25T14:25:59.930Z,5244
2017-03-25T14:26:40.519Z,5228
2017-03-25T14:27:21.088Z,5172
2017-03-25T14:28:01.658Z,5144
2017-03-25T14:28:42.239Z,5156
2017-03-25T14:29:22.829Z,5152
2017-03-25T14:30:03.416Z,5128
2017-03-25T14:30:43.996Z,5144
2017-03-25T14:31:24.581Z,5140
2017-03-25T14:32:05.165Z,5140
2017-03-25T14:32:45.752Z,5124
2017-03-25T14:33:26.336Z,5124
2017-03-25T14:34:06.914Z,5132
2017-03-25T14:34:47.496Z,5152
2017-03-25T14:35:28.077Z,5124
2017-03-25T14:36:08.645Z,5124
2017-03-25T14:36:49.231Z,5072
2017-03-25T14:37:29.811Z,5060
2017-03-25T14:38:10.392Z,5044
2017-03-25T14:38:50.980Z,5072
2017-03-25T14:39:31.564Z,5084
2017-03-25T14:40:12.141Z,5092
2017-03-25T14:40:52.717Z,5076
2017-03-25T14:41:33.302Z,5096
2017-03-25T14:42:13.889Z,5092
2017-03-25T14:42:54.474Z,5088
2017-03-25T14:43:35.058Z,5056
2017-03-25T14:44:15.781Z,5052
2017-03-25T14:44:56.890Z,5060
2017-03-25T14:45:37.850Z,5056
2017-03-25T14:46:18.986Z,5048
2017-03-25T14:46:59.819Z,5048
2017-03-25T14:47:40.739Z,5036
2017-03-25T14:48:21.324Z,5016
2017-03-25T14:49:01.893Z,5028
2017-03-25T14:49:42.486Z,5000
2017-03-25T14:50:23.284Z,5008
2017-03-25T14:51:04.026Z,5092
2017-03-25T14:51:45.154Z,5060
2017-03-25T14:52:26.350Z,4996
2017-03-25T14:53:07.476Z,4936
2017-03-25T14:53:48.196Z,4920
2017-03-25T14:54:29.144Z,4916
2017-03-25T14:55:10.242Z,4920
2017-03-25T14:55:50.927Z,4924
2017-03-25T14:56:31.682Z,4960
2017-03-25T14:57:12.427Z,4968
2017-03-25T14:57:53.463Z,4928
2017-03-25T14:58:34.167Z,4904
2017-03-25T14:59:14.998Z,4876
2017-03-25T14:59:55.574Z,4844
2017-03-25T15:00:36.690Z,4812
2017-03-25T15:01:17.644Z,4864
2017-03-25T15:01:58.655Z,4888
2017-03-25T15:02:39.539Z,4832
2017-03-25T15:03:20.504Z,4812
2017-03-25T15:04:01.267Z,4784
2017-03-25T15:04:42.133Z,4792
2017-03-25T15:05:22.714Z,4804
2017-03-25T15:06:03.330Z,4808
2017-03-25T15:06:44.024Z,4792
2017-03-25T15:07:24.727Z,4804
2017-03-25T15:08:05.618Z,4860
2017-03-25T15:08:46.472Z,4904
2017-03-25T15:09:27.258Z,4920
2017-03-25T15:10:08.180Z,4908
2017-03-25T15:10:48.984Z,4892
2017-03-25T15:11:29.794Z,4844
2017-03-25T15:12:10.629Z,4848
2017-03-25T15:12:51.319Z,4824
2017-03-25T15:13:32.097Z,4824
2017-03-25T15:14:12.940Z,4800
2017-03-25T15:14:53.893Z,4772
2017-03-25T15:15:34.485Z,4760
2017-03-25T15:16:15.235Z,4708
2017-03-25T15:16:56.023Z,4632
2017-03-25T15:17:37.019Z,4624
2017-03-25T15:18:17.602Z,4600
2017-03-25T15:18:58.270Z,4568
2017-03-25T15:19:38.854Z,4528
2017-03-25T15:20:19.706Z,4568
2017-03-25T15:21:00.419Z,4568
2017-03-25T15:21:41.199Z,4568
2017-03-25T15:22:22.096Z,4580
2017-03-25T15:23:02.672Z,4576
2017-03-25T15:23:43.263Z,4552
2017-03-25T15:24:23.843Z,4580
2017-03-25T15:25:04.412Z,4568
2017-03-25T15:25:44.997Z,4512
2017-03-25T15:26:25.569Z,4540
2017-03-25T15:27:06.161Z,4528
2017-03-25T15:27:47.262Z,4484
2017-03-25T15:28:28.084Z,4440
2017-03-25T15:29:08.853Z,4412
2017-03-25T15:29:49.796Z,4456
2017-03-25T15:30:30.397Z,4452
2017-03-25T15:31:11.251Z,4424
2017-03-25T15:31:51.942Z,4412
2017-03-25T15:32:32.840Z,4384
2017-03-25T15:33:13.773Z,4348
2017-03-25T15:33:54.637Z,4336
2017-03-25T15:34:35.752Z,4332
2017-03-25T15:35:16.859Z,4296
2017-03-25T15:35:57.680Z,4280
2017-03-25T15:36:38.756Z,4236
2017-03-25T15:37:19.734Z,4272
2017-03-25T15:38:00.660Z,4260
2017-03-25T15:38:41.358Z,4288
2017-03-25T15:39:22.093Z,4284
2017-03-25T15:40:03.073Z,4276
2017-03-25T15:40:44.263Z,4244
2017-03-25T15:41:25.003Z,4220
2017-03-25T15:42:05.756Z,4216
2017-03-25T15:42:46.538Z,4224
2017-03-25T15:43:27.319Z,4236
2017-03-25T15:44:08.083Z,4240
2017-03-25T15:44:48.948Z,4188
2017-03-25T15:45:29.587Z,4128
2017-03-25T15:46:10.270Z,4088
2017-03-25T15:46:51.094Z,4064
2017-03-25T15:47:31.775Z,4036
2017-03-25T15:48:12.640Z,4016
2017-03-25T15:48:53.551Z,3976
2017-03-25T15:49:34.477Z,3948
2017-03-25T15:50:15.067Z,3912
2017-03-25T15:50:55.649Z,3892
2017-03-25T15:51:36.225Z,3872
2017-03-25T15:52:16.790Z,3876
2017-03-25T15:52:57.365Z,3860
2017-03-25T15:53:37.957Z,3792
2017-03-25T15:54:18.537Z,3776
2017-03-25T15:54:59.118Z,3756
2017-03-25T15:55:39.707Z,3772
2017-03-25T15:56:20.292Z,3764
2017-03-25T15:57:00.881Z,3748
2017-03-25T15:57:41.463Z,3728
2017-03-25T15:58:22.046Z,3712
2017-03-25T15:59:02.632Z,3704
2017-03-25T15:59:43.223Z,3692
2017-03-25T16:02:01.165Z,3612
2017-03-25T16:02:41.749Z,3592
2017-03-25T16:03:32.830Z,3564
2017-03-25T16:04:13.417Z,3552
2017-03-25T16:04:55.576Z,3520
2017-03-25T16:05:36.157Z,3496
2017-03-25T16:06:17.559Z,3468
2017-03-25T16:06:58.243Z,3452
2017-03-25T16:07:38.912Z,3420
2017-03-25T16:08:19.499Z,3396
2017-03-25T16:09:00.077Z,3368
2017-03-25T16:09:40.649Z,3348
2017-03-25T16:10:21.233Z,3324
2017-03-25T16:11:08.681Z,3292
2017-03-25T16:11:49.260Z,3264
2017-03-25T16:12:29.850Z,3248
2017-03-25T16:13:10.432Z,3232
2017-03-25T16:13:51.018Z,3208
2017-03-25T16:14:31.596Z,3188
2017-03-25T16:15:12.177Z,3160
2017-03-25T16:15:52.755Z,3128
2017-03-25T16:16:33.326Z,3104
2017-03-25T16:17:13.912Z,3080
2017-03-25T16:17:54.490Z,3068
2017-03-25T16:18:35.072Z,3044
2017-03-25T16:19:15.650Z,3012
2017-03-25T16:19:56.226Z,2980
2017-03-25T16:20:36.809Z,2948
2017-03-25T16:21:17.392Z,2916
2017-03-25T16:21:57.972Z,2888
2017-03-25T16:22:38.557Z,2864
2017-03-25T16:23:19.149Z,2852
2017-03-25T16:23:59.716Z,2832
2017-03-25T16:24:40.303Z,2816
2017-03-25T16:25:20.894Z,2788
2017-03-25T16:26:01.461Z,2756
2017-03-25T16:26:42.046Z,2728
2017-03-25T16:27:22.616Z,2700
2017-03-25T16:28:03.216Z,2672
2017-03-25T16:28:43.803Z,2644
2017-03-25T16:29:24.380Z,2612
2017-03-25T16:30:04.958Z,2580
2017-03-25T16:30:45.545Z,2548
2017-03-25T16:31:26.124Z,2516
2017-03-25T16:32:06.706Z,2492
2017-03-25T16:32:47.292Z,2464
2017-03-25T16:33:27.876Z,2440
2017-03-25T16:34:08.451Z,2420
2017-03-25T16:34:49.030Z,2392
2017-03-25T16:35:29.604Z,2368
2017-03-25T16:36:10.179Z,2344
2017-03-25T16:36:50.759Z,2320
2017-03-25T16:37:31.340Z,2300
2017-03-25T16:38:11.920Z,2276
2017-03-25T16:38:52.505Z,2256
2017-03-25T16:39:33.081Z,2236
2017-03-25T16:40:13.665Z,2212
2017-03-25T16:40:54.255Z,2188
2017-03-25T16:41:34.823Z,2168
2017-03-25T16:42:15.398Z,2152
2017-03-25T16:42:55.981Z,2132